createdAt,value
2023-04-02T00:00:31.937Z,9.38
2023-04-02T00:03:03.836Z,9.36
2023-04-02T00:05:55.850Z,9.37
2023-04-02T00:08:28.157Z,9.38
2023-04-02T00:10:58.912Z,9.35
2023-04-02T00:13:34.886Z,9.31
2023-04-02T00:16:05.471Z,9.29
2023-04-02T00:18:35.104Z,9.32
2023-04-02T00:21:13.639Z,9.28
2023-04-02T00:23:43.828Z,9.26
2023-04-02T00:26:30.377Z,9.26
2023-04-02T00:29:00.489Z,9.24
2023-04-02T00:31:29.163Z,9.22
2023-04-02T00:33:58.230Z,9.22
2023-04-02T00:36:30.227Z,9.13
2023-04-02T00:39:00.387Z,8.99
2023-04-02T00:41:31.918Z,8.93
2023-04-02T00:44:02.781Z,8.93
2023-04-02T00:46:34.752Z,8.84
2023-04-02T00:49:09.809Z,8.77
2023-04-02T00:51:41.696Z,8.64
2023-04-02T00:54:15.794Z,8.51
2023-04-02T00:56:46.296Z,8.46
2023-04-02T00:59:28.239Z,8.44
2023-04-02T01:02:01.797Z,8.37
2023-04-02T01:04:36.613Z,8.40
2023-04-02T01:07:08.697Z,8.46
2023-04-02T01:09:53.794Z,8.48
2023-04-02T01:12:44.126Z,8.49
2023-04-02T01:15:19.652Z,8.43
2023-04-02T01:18:03.350Z,8.30
2023-04-02T01:20:55.012Z,8.19
2023-04-02T01:23:29.418Z,8.16
2023-04-02T01:26:05.854Z,8.13
2023-04-02T01:28:47.312Z,8.06
2023-04-02T01:31:17.578Z,7.78
2023-04-02T01:33:45.641Z,7.68
2023-04-02T01:36:23.777Z,7.76
2023-04-02T01:39:02.146Z,7.86
2023-04-02T01:41:36.852Z,7.99
2023-04-02T01:44:09.472Z,8.15
2023-04-02T01:46:43.011Z,8.22
2023-04-02T01:49:15.012Z,8.13
2023-04-02T01:51:45.640Z,8.07
2023-04-02T01:54:18.433Z,8.11
2023-04-02T01:56:47.174Z,8.19
2023-04-02T01:59:18.676Z,8.32
2023-04-02T02:01:53.612Z,8.31
2023-04-02T02:04:21.747Z,8.34
2023-04-02T02:06:50.625Z,8.32
2023-04-02T02:09:24.090Z,8.31
2023-04-02T02:11:52.694Z,8.25
2023-04-02T02:14:24.898Z,8.21
2023-04-02T02:16:56.611Z,7.97
2023-04-02T02:19:29.383Z,7.94
2023-04-02T02:22:05.170Z,7.97
2023-04-02T02:24:35.792Z,8.06
2023-04-02T02:27:32.790Z,8.06
2023-04-02T02:30:15.451Z,8.12
2023-04-02T02:32:51.220Z,8.15
2023-04-02T02:35:23.961Z,8.12
2023-04-02T02:37:58.801Z,8.14
2023-04-02T02:40:33.061Z,8.17
2023-04-02T02:43:04.312Z,8.17
2023-04-02T02:45:38.765Z,8.19
2023-04-02T02:48:11.717Z,8.18
2023-04-02T02:50:41.238Z,8.14
2023-04-02T02:53:18.732Z,8.05
2023-04-02T02:55:48.765Z,8.00
2023-04-02T02:58:27.342Z,8.00
2023-04-02T03:01:19.807Z,8.02
2023-04-02T03:03:53.574Z,8.05
2023-04-02T03:06:22.438Z,8.10
2023-04-02T03:09:05.053Z,8.11
2023-04-02T03:11:41.386Z,8.16
2023-04-02T03:14:21.345Z,8.11
2023-04-02T03:16:57.810Z,8.07
2023-04-02T03:19:33.912Z,7.99
2023-04-02T03:22:09.689Z,7.94
2023-04-02T03:24:48.359Z,7.92
2023-04-02T03:27:21.481Z,7.91
2023-04-02T03:30:02.784Z,7.90
2023-04-02T03:32:38.418Z,7.87
2023-04-02T03:35:21.068Z,7.87
2023-04-02T03:37:54.936Z,7.89
2023-04-02T03:40:29.792Z,7.93
2023-04-02T03:43:04.776Z,7.96
2023-04-02T03:45:40.511Z,8.00
2023-04-02T03:48:16.884Z,8.07
2023-04-02T03:50:50.777Z,8.05
2023-04-02T03:53:18.999Z,8.10
2023-04-02T03:55:47.843Z,8.15
2023-04-02T03:58:22.135Z,8.16
2023-04-02T04:00:55.530Z,8.15
2023-04-02T04:03:28.044Z,8.06
2023-04-02T04:06:00.644Z,8.00
2023-04-02T04:08:34.163Z,7.95
2023-04-02T04:11:08.527Z,7.95
2023-04-02T04:13:44.659Z,7.89
2023-04-02T04:16:17.193Z,7.90
2023-04-02T04:18:52.760Z,7.90
2023-04-02T04:21:31.039Z,7.92
2023-04-02T04:24:13.219Z,7.90
2023-04-02T04:26:49.746Z,7.81
2023-04-02T04:29:34.133Z,7.57
2023-04-02T04:32:18.916Z,7.71
2023-04-02T04:34:53.729Z,7.44
2023-04-02T04:37:35.195Z,7.27
2023-04-02T04:40:13.379Z,7.26
2023-04-02T04:42:44.568Z,7.18
2023-04-02T04:45:27.226Z,7.19
2023-04-02T04:48:01.679Z,7.21
2023-04-02T04:50:35.593Z,7.20
2023-04-02T04:53:08.398Z,7.30
2023-04-02T04:55:40.409Z,7.45
2023-04-02T04:58:19.838Z,7.61
2023-04-02T05:00:57.591Z,7.61
2023-04-02T05:03:32.076Z,7.48
2023-04-02T05:06:09.942Z,7.46
2023-04-02T05:08:45.357Z,7.51
2023-04-02T05:11:21.118Z,7.62
2023-04-02T05:13:53.592Z,7.73
2023-04-02T05:16:27.508Z,7.90
2023-04-02T05:19:03.813Z,8.14
2023-04-02T05:21:43.277Z,8.34
2023-04-02T05:24:43.438Z,8.52
2023-04-02T05:27:25.121Z,8.65
2023-04-02T05:30:00.467Z,8.78
2023-04-02T05:32:33.358Z,8.84
2023-04-02T05:35:05.515Z,8.97
2023-04-02T05:37:41.136Z,9.15
2023-04-02T05:40:20.969Z,9.23
2023-04-02T05:42:55.708Z,9.19
2023-04-02T05:45:31.190Z,9.20
2023-04-02T05:48:05.931Z,9.20
2023-04-02T05:50:44.371Z,9.22
2023-04-02T05:53:26.153Z,9.13
2023-04-02T05:55:59.352Z,9.42
2023-04-02T05:58:36.996Z,9.54
2023-04-02T06:01:39.175Z,9.64
2023-04-02T06:04:43.737Z,9.70
2023-04-02T06:07:17.444Z,9.73
2023-04-02T06:09:57.993Z,9.75
2023-04-02T06:12:33.018Z,9.75
2023-04-02T06:15:01.981Z,9.72
2023-04-02T06:17:43.337Z,9.74
2023-04-02T06:20:17.262Z,9.75
2023-04-02T06:22:50.386Z,9.77
2023-04-02T06:25:25.227Z,9.81
2023-04-02T06:27:56.421Z,9.82
2023-04-02T06:30:29.795Z,9.85
2023-04-02T06:32:58.253Z,9.85
2023-04-02T06:35:28.447Z,9.85
2023-04-02T06:38:05.165Z,9.88
2023-04-02T06:40:42.812Z,9.82
2023-04-02T06:43:36.311Z,9.95
2023-04-02T06:46:31.098Z,10.13
2023-04-02T06:49:16.255Z,10.30
2023-04-02T06:51:46.773Z,10.44
2023-04-02T06:54:19.021Z,10.53
2023-04-02T06:56:54.604Z,10.62
2023-04-02T06:59:29.903Z,10.75
2023-04-02T07:02:03.647Z,10.81
2023-04-02T07:04:32.637Z,10.81
2023-04-02T07:07:00.723Z,10.90
2023-04-02T07:09:32.938Z,10.95
2023-04-02T07:12:12.385Z,10.99
2023-04-02T07:14:40.896Z,11.02
2023-04-02T07:17:16.832Z,11.09
2023-04-02T07:19:49.145Z,11.15
2023-04-02T07:22:19.386Z,11.22
2023-04-02T07:24:50.858Z,11.30
2023-04-02T07:27:20.220Z,11.45
2023-04-02T07:29:48.167Z,11.56
2023-04-02T07:32:16.323Z,11.64
2023-04-02T07:34:44.178Z,11.77
2023-04-02T07:37:14.977Z,11.85
2023-04-02T07:39:42.973Z,11.89
2023-04-02T07:42:11.431Z,11.96
2023-04-02T07:44:40.737Z,12.10
2023-04-02T07:47:10.603Z,12.23
2023-04-02T07:49:38.720Z,12.39
2023-04-02T07:52:07.043Z,12.49
2023-04-02T07:54:35.872Z,12.53
2023-04-02T07:57:03.807Z,12.59
2023-04-02T07:59:31.670Z,12.92
2023-04-02T08:02:01.067Z,13.08
2023-04-02T08:04:29.015Z,13.20
2023-04-02T08:06:56.929Z,13.25
2023-04-02T08:09:24.839Z,13.28
2023-04-02T08:11:52.738Z,13.22
2023-04-02T08:14:20.980Z,13.16
2023-04-02T08:16:51.011Z,13.19
2023-04-02T08:19:21.379Z,13.21
2023-04-02T08:21:51.638Z,13.24
2023-04-02T08:24:20.402Z,13.25
2023-04-02T08:26:49.574Z,13.30
2023-04-02T08:29:17.587Z,13.42
2023-04-02T08:31:45.453Z,13.54
2023-04-02T08:34:13.766Z,13.59
2023-04-02T08:36:45.447Z,13.65
2023-04-02T08:39:13.833Z,13.66
2023-04-02T08:41:48.335Z,13.60
2023-04-02T08:44:32.393Z,13.52
2023-04-02T08:47:04.689Z,13.51
2023-04-02T08:49:37.433Z,13.47
2023-04-02T08:52:06.706Z,13.56
2023-04-02T08:54:38.524Z,13.68
2023-04-02T08:57:14.271Z,13.80
2023-04-02T08:59:44.086Z,13.89
2023-04-02T09:02:28.527Z,13.95
2023-04-02T09:04:58.237Z,14.05
2023-04-02T09:07:28.495Z,14.08
2023-04-02T09:09:58.107Z,14.12
2023-04-02T09:12:28.963Z,14.13
2023-04-02T09:15:11.795Z,14.18
2023-04-02T09:17:53.081Z,14.26
2023-04-02T09:20:24.634Z,14.25
2023-04-02T09:22:54.871Z,14.35
2023-04-02T09:25:26.898Z,14.42
2023-04-02T09:27:58.017Z,14.50
2023-04-02T09:30:41.931Z,14.58
2023-04-02T09:33:10.132Z,14.56
2023-04-02T09:35:39.338Z,14.54
2023-04-02T09:38:21.700Z,14.54
2023-04-02T09:40:52.783Z,14.61
2023-04-02T09:43:23.004Z,14.73
2023-04-02T09:46:00.393Z,14.86
2023-04-02T09:48:31.406Z,14.84
2023-04-02T09:51:08.082Z,14.87
2023-04-02T09:53:41.883Z,14.80
2023-04-02T09:56:14.642Z,14.90
2023-04-02T09:58:47.262Z,15.06
2023-04-02T10:01:29.285Z,15.24
2023-04-02T10:03:59.238Z,15.13
2023-04-02T10:06:28.898Z,14.86
2023-04-02T10:08:58.462Z,14.66
2023-04-02T10:11:36.627Z,14.73
2023-04-02T10:14:18.999Z,14.60
2023-04-02T10:16:51.507Z,14.24
2023-04-02T10:19:26.384Z,13.84
2023-04-02T10:21:56.602Z,13.38
2023-04-02T10:24:29.416Z,13.05
2023-04-02T10:27:04.054Z,12.87
2023-04-02T10:29:58.183Z,12.77
2023-04-02T10:32:31.070Z,12.65
2023-04-02T10:35:03.393Z,12.51
2023-04-02T10:37:54.309Z,12.45
2023-04-02T10:40:29.458Z,12.48
2023-04-02T10:43:38.604Z,12.51
2023-04-02T10:46:13.020Z,12.44
2023-04-02T10:48:47.866Z,12.46
2023-04-02T10:51:29.858Z,12.53
2023-04-02T10:54:07.122Z,12.52
2023-04-02T10:56:49.873Z,12.54
2023-04-02T10:59:23.642Z,12.55
2023-04-02T11:01:53.893Z,12.56
2023-04-02T11:04:28.637Z,12.62
2023-04-02T11:07:11.208Z,12.64
2023-04-02T11:09:47.398Z,12.57
2023-04-02T11:12:24.384Z,12.57
2023-04-02T11:14:53.375Z,12.68
2023-04-02T11:17:22.860Z,12.72
2023-04-02T11:19:50.873Z,12.82
2023-04-02T11:22:21.501Z,12.98
2023-04-02T11:24:51.174Z,12.95
2023-04-02T11:27:27.882Z,12.92
2023-04-02T11:30:04.850Z,12.91
2023-04-02T11:32:37.251Z,13.00
2023-04-02T11:35:28.305Z,13.02
2023-04-02T11:37:59.668Z,12.99
2023-04-02T11:40:51.357Z,12.89
2023-04-02T11:43:49.975Z,12.81
2023-04-02T11:46:46.435Z,12.88
2023-04-02T11:49:54.163Z,12.92
2023-04-02T11:52:25.763Z,12.96
2023-04-02T11:54:59.394Z,12.96
2023-04-02T11:57:40.964Z,13.01
2023-04-02T12:00:23.019Z,13.30
2023-04-02T12:03:04.351Z,13.41
2023-04-02T12:05:43.097Z,13.49
2023-04-02T12:08:25.060Z,13.37
2023-04-02T12:10:59.264Z,13.32
2023-04-02T12:13:52.865Z,13.41
2023-04-02T12:16:24.236Z,13.46
2023-04-02T12:18:54.939Z,13.50
2023-04-02T12:21:26.408Z,13.49
2023-04-02T12:23:57.278Z,13.56
2023-04-02T12:26:37.622Z,13.35
2023-04-02T12:29:24.551Z,13.18
2023-04-02T12:31:54.756Z,13.02
2023-04-02T12:34:24.717Z,13.08
2023-04-02T12:36:59.461Z,13.04
2023-04-02T12:39:28.466Z,13.25
2023-04-02T12:41:57.090Z,13.51
2023-04-02T12:44:27.576Z,13.59
2023-04-02T12:46:58.588Z,13.64
2023-04-02T12:49:45.014Z,13.65
2023-04-02T12:52:14.722Z,13.71
2023-04-02T12:54:47.064Z,13.55
2023-04-02T12:57:36.139Z,13.52
2023-04-02T13:00:30.389Z,13.93
2023-04-02T13:03:17.508Z,13.99
2023-04-02T13:05:47.909Z,13.76
2023-04-02T13:08:19.250Z,13.82
2023-04-02T13:10:53.182Z,13.62
2023-04-02T13:13:28.165Z,13.42
2023-04-02T13:16:26.670Z,13.29
2023-04-02T13:19:12.372Z,13.27
2023-04-02T13:21:40.339Z,13.19
2023-04-02T13:24:17.900Z,12.92
2023-04-02T13:26:47.883Z,12.90
2023-04-02T13:29:25.593Z,12.94
2023-04-02T13:31:56.286Z,13.01
2023-04-02T13:34:25.817Z,12.72
2023-04-02T13:36:53.948Z,12.59
2023-04-02T13:39:22.449Z,12.83
2023-04-02T13:41:52.973Z,13.23
2023-04-02T13:44:23.997Z,13.43
2023-04-02T13:46:52.511Z,13.47
2023-04-02T13:49:20.956Z,13.44
2023-04-02T13:51:51.867Z,13.61
2023-04-02T13:54:25.733Z,13.70
2023-04-02T13:56:53.931Z,13.78
2023-04-02T13:59:21.860Z,13.82
2023-04-02T14:01:52.370Z,13.89
2023-04-02T14:04:24.907Z,13.72
2023-04-02T14:07:22.761Z,13.87
2023-04-02T14:10:04.167Z,13.87
2023-04-02T14:12:43.243Z,13.93
2023-04-02T14:15:26.576Z,14.13
2023-04-02T14:18:11.437Z,13.96
2023-04-02T14:20:48.767Z,13.82
2023-04-02T14:23:46.704Z,13.61
2023-04-02T14:26:21.402Z,13.62
2023-04-02T14:28:57.587Z,13.60
2023-04-02T14:31:31.957Z,13.54
2023-04-02T14:34:07.776Z,13.42
2023-04-02T14:36:45.833Z,13.25
2023-04-02T14:39:22.803Z,13.07
2023-04-02T14:41:57.491Z,13.08
2023-04-02T14:44:29.325Z,13.24
2023-04-02T14:47:03.119Z,13.16
2023-04-02T14:49:41.689Z,13.20
2023-04-02T14:52:14.865Z,13.18
2023-04-02T14:54:51.904Z,13.18
2023-04-02T14:57:23.702Z,12.93
2023-04-02T15:00:00.137Z,12.93
2023-04-02T15:02:37.837Z,12.74
2023-04-02T15:05:16.447Z,12.60
2023-04-02T15:07:51.120Z,12.55
2023-04-02T15:10:27.252Z,12.38
2023-04-02T15:12:56.905Z,12.42
2023-04-02T15:15:40.614Z,12.50
2023-04-02T15:18:12.647Z,12.28
2023-04-02T15:20:49.518Z,12.26
2023-04-02T15:23:30.399Z,12.25
2023-04-02T15:26:08.363Z,12.19
2023-04-02T15:28:41.902Z,12.10
2023-04-02T15:31:14.275Z,12.12
2023-04-02T15:33:45.968Z,12.06
2023-04-02T15:36:45.717Z,12.18
2023-04-02T15:39:44.449Z,12.21
2023-04-02T15:42:19.721Z,12.18
2023-04-02T15:45:02.887Z,12.22
2023-04-02T15:47:41.748Z,12.18
2023-04-02T15:50:30.859Z,11.95
2023-04-02T15:53:09.658Z,11.79
2023-04-02T15:55:46.060Z,11.94
2023-04-02T15:58:25.642Z,11.89
2023-04-02T16:01:09.129Z,11.89
2023-04-02T16:04:07.504Z,11.96
2023-04-02T16:06:44.646Z,11.79
2023-04-02T16:09:23.801Z,11.65
2023-04-02T16:11:58.328Z,11.86
2023-04-02T16:14:28.941Z,11.94
2023-04-02T16:17:08.094Z,11.75
2023-04-02T16:19:45.798Z,11.64
2023-04-02T16:22:19.527Z,11.37
2023-04-02T16:24:50.984Z,11.21
2023-04-02T16:27:29.579Z,11.20
2023-04-02T16:30:18.109Z,11.16
2023-04-02T16:33:00.871Z,11.23
2023-04-02T16:35:43.043Z,11.00
2023-04-02T16:38:21.788Z,10.46
2023-04-02T16:41:07.667Z,10.21
2023-04-02T16:43:44.762Z,9.80
2023-04-02T16:46:38.202Z,9.37
2023-04-02T16:49:20.172Z,9.18
2023-04-02T16:51:59.692Z,8.95
2023-04-02T16:54:36.765Z,8.92
2023-04-02T16:57:23.573Z,8.80
2023-04-02T17:00:01.960Z,8.72
2023-04-02T17:02:43.429Z,8.57
2023-04-02T17:05:25.750Z,8.52
2023-04-02T17:08:03.034Z,8.37
2023-04-02T17:10:32.346Z,8.31
2023-04-02T17:13:14.016Z,8.21
2023-04-02T17:15:44.572Z,8.20
2023-04-02T17:18:19.859Z,8.09
2023-04-02T17:20:48.165Z,8.03
2023-04-02T17:23:18.119Z,7.93
2023-04-02T17:25:51.394Z,7.97
2023-04-02T17:28:25.455Z,7.83
2023-04-02T17:30:56.958Z,7.77
2023-04-02T17:33:28.370Z,7.76
2023-04-02T17:36:16.009Z,7.75
2023-04-02T17:38:57.569Z,7.68
2023-04-02T17:41:33.257Z,7.62
2023-04-02T17:44:08.532Z,7.59
2023-04-02T17:46:40.340Z,7.59
2023-04-02T17:49:22.882Z,7.56
2023-04-02T17:51:57.300Z,7.56
2023-04-02T17:54:37.114Z,7.59
2023-04-02T17:57:20.600Z,7.60
2023-04-02T18:00:12.573Z,7.58
2023-04-02T18:02:56.897Z,7.54
2023-04-02T18:05:31.934Z,7.55
2023-04-02T18:08:13.368Z,7.51
2023-04-02T18:10:52.296Z,7.52
2023-04-02T18:13:32.705Z,7.53
2023-04-02T18:16:14.667Z,7.49
2023-04-02T18:19:03.412Z,7.41
2023-04-02T18:21:37.932Z,7.38
2023-04-02T18:24:30.781Z,7.36
2023-04-02T18:27:15.668Z,7.31
2023-04-02T18:29:52.448Z,7.28
2023-04-02T18:32:36.627Z,7.26
2023-04-02T18:35:16.320Z,7.23
2023-04-02T18:37:58.879Z,7.20
2023-04-02T18:40:37.680Z,7.19
2023-04-02T18:43:17.063Z,7.20
2023-04-02T18:45:56.845Z,7.21
2023-04-02T18:48:43.531Z,7.22
2023-04-02T18:51:18.389Z,7.20
2023-04-02T18:53:50.290Z,7.14
2023-04-02T18:56:22.049Z,7.11
2023-04-02T18:58:57.495Z,7.09
2023-04-02T19:01:31.628Z,7.11
2023-04-02T19:04:05.088Z,7.12
2023-04-02T19:06:37.914Z,7.08
2023-04-02T19:09:13.248Z,7.03
2023-04-02T19:11:41.112Z,7.05
2023-04-02T19:14:13.564Z,6.99
2023-04-02T19:17:11.317Z,7.02
2023-04-02T19:19:43.986Z,6.95
2023-04-02T19:22:24.817Z,6.95
2023-04-02T19:25:12.493Z,6.85
2023-04-02T19:27:54.938Z,6.86
2023-04-02T19:30:42.388Z,6.85
2023-04-02T19:33:24.819Z,6.82
2023-04-02T19:35:58.758Z,6.79
2023-04-02T19:38:49.380Z,6.75
2023-04-02T19:41:30.537Z,6.69
2023-04-02T19:43:58.679Z,6.69
2023-04-02T19:46:27.520Z,6.62
2023-04-02T19:49:03.146Z,6.62
2023-04-02T19:51:31.290Z,6.64
2023-04-02T19:53:59.285Z,6.66
2023-04-02T19:56:29.282Z,6.63
2023-04-02T19:58:58.303Z,6.59
2023-04-02T20:01:28.056Z,6.57
2023-04-02T20:03:55.962Z,6.50
2023-04-02T20:06:23.863Z,6.49
2023-04-02T20:08:51.765Z,6.40
2023-04-02T20:11:19.839Z,6.41
2023-04-02T20:13:50.146Z,6.40
2023-04-02T20:16:18.283Z,6.40
2023-04-02T20:18:46.241Z,6.39
2023-04-02T20:21:14.161Z,6.34
2023-04-02T20:23:42.486Z,6.32
2023-04-02T20:26:10.476Z,6.31
2023-04-02T20:28:38.399Z,6.28
2023-04-02T20:31:09.566Z,6.25
2023-04-02T20:33:38.188Z,6.23
2023-04-02T20:36:09.542Z,6.23
2023-04-02T20:38:37.771Z,6.23
2023-04-02T20:41:07.072Z,6.20
2023-04-02T20:43:36.198Z,6.19
2023-04-02T20:46:08.931Z,6.16
2023-04-02T20:48:39.757Z,6.16
2023-04-02T20:51:09.082Z,6.14
2023-04-02T20:53:38.430Z,6.16
2023-04-02T20:56:08.436Z,6.16
2023-04-02T20:58:37.174Z,6.14
2023-04-02T21:01:10.115Z,6.13
2023-04-02T21:03:40.522Z,6.17
2023-04-02T21:06:13.828Z,6.14
2023-04-02T21:08:41.873Z,6.08
2023-04-02T21:11:10.806Z,6.07
2023-04-02T21:13:41.766Z,6.11
2023-04-02T21:16:16.212Z,6.15
2023-04-02T21:18:46.573Z,6.10
2023-04-02T21:21:15.954Z,6.06
2023-04-02T21:23:45.159Z,6.07
2023-04-02T21:26:15.021Z,6.04
2023-04-02T21:28:43.976Z,6.01
2023-04-02T21:31:13.280Z,5.99
2023-04-02T21:33:43.647Z,5.96
2023-04-02T21:36:15.310Z,5.97
2023-04-02T21:38:43.769Z,6.01
2023-04-02T21:41:13.597Z,6.01
2023-04-02T21:43:41.457Z,5.97
2023-04-02T21:46:09.670Z,5.97
2023-04-02T21:48:37.717Z,5.97
2023-04-02T21:51:07.628Z,5.95
2023-04-02T21:53:36.953Z,5.91
2023-04-02T21:56:06.415Z,5.89
2023-04-02T21:58:34.951Z,5.87
2023-04-02T22:01:05.485Z,5.86
2023-04-02T22:03:35.330Z,5.83
2023-04-02T22:06:05.840Z,5.85
2023-04-02T22:08:34.014Z,5.85
2023-04-02T22:11:11.600Z,5.75
2023-04-02T22:13:41.549Z,5.72
2023-04-02T22:16:12.718Z,5.76
2023-04-02T22:18:41.482Z,5.75
2023-04-02T22:21:09.634Z,5.75
2023-04-02T22:23:37.852Z,5.67
2023-04-02T22:26:07.676Z,5.72
2023-04-02T22:28:37.978Z,5.73
2023-04-02T22:31:07.654Z,5.71
2023-04-02T22:33:37.059Z,5.64
2023-04-02T22:36:06.322Z,5.71
2023-04-02T22:38:35.185Z,5.73
2023-04-02T22:41:07.781Z,5.68
2023-04-02T22:43:37.999Z,5.66
2023-04-02T22:46:06.538Z,5.66
2023-04-02T22:48:34.942Z,5.65
2023-04-02T22:51:03.247Z,5.64
2023-04-02T22:53:31.231Z,5.67
2023-04-02T22:56:03.192Z,5.69
2023-04-02T22:58:31.222Z,5.70
2023-04-02T23:01:05.958Z,5.71
2023-04-02T23:03:33.962Z,5.67
2023-04-02T23:06:03.393Z,5.73
2023-04-02T23:08:31.692Z,5.68
2023-04-02T23:11:04.442Z,5.68
2023-04-02T23:13:33.093Z,5.69
2023-04-02T23:16:01.975Z,5.70
2023-04-02T23:18:32.873Z,5.71
2023-04-02T23:21:01.298Z,5.68
2023-04-02T23:23:29.458Z,5.68
2023-04-02T23:26:05.498Z,5.69
2023-04-02T23:28:33.797Z,5.72
2023-04-02T23:31:03.074Z,5.64
2023-04-02T23:33:32.760Z,5.69
2023-04-02T23:36:01.015Z,5.71
2023-04-02T23:38:29.005Z,5.71
2023-04-02T23:40:56.862Z,5.69
2023-04-02T23:43:24.974Z,5.66
2023-04-02T23:45:52.858Z,5.65
2023-04-02T23:48:20.720Z,5.62
2023-04-02T23:50:49.933Z,5.60
2023-04-02T23:53:18.724Z,5.48
2023-04-02T23:55:46.888Z,5.51
2023-04-02T23:58:14.896Z,5.49
